createdAt,value
2019-05-28T00:01:37.865Z,55.38
2019-05-28T00:04:07.696Z,55.50
2019-05-28T00:06:37.343Z,55.47
2019-05-28T00:09:09.499Z,56.38
2019-05-28T00:11:39.267Z,56.97
2019-05-28T00:14:08.982Z,57.40
2019-05-28T00:16:38.655Z,57.61
2019-05-28T00:19:08.492Z,57.57
2019-05-28T00:21:38.155Z,57.14
2019-05-28T00:24:07.891Z,57.11
2019-05-28T00:26:37.924Z,56.85
2019-05-28T00:29:07.652Z,57.27
2019-05-28T00:31:37.330Z,57.72
2019-05-28T00:34:06.992Z,56.93
2019-05-28T00:36:36.692Z,56.91
2019-05-28T00:39:08.471Z,57.34
2019-05-28T00:41:38.285Z,56.74
2019-05-28T00:44:08.161Z,56.69
2019-05-28T00:46:37.890Z,56.72
2019-05-28T00:49:07.729Z,57.00
2019-05-28T00:51:38.332Z,57.10
2019-05-28T00:54:08.079Z,57.23
2019-05-28T00:56:39.003Z,57.29
2019-05-28T00:59:09.676Z,57.37
2019-05-28T01:01:39.320Z,57.23
2019-05-28T01:04:08.984Z,58.18
2019-05-28T01:06:38.659Z,59.33
2019-05-28T01:09:09.355Z,59.63
2019-05-28T01:11:39.113Z,60.38
2019-05-28T01:14:08.840Z,61.30
2019-05-28T01:16:38.570Z,62.17
2019-05-28T01:19:08.202Z,62.74
2019-05-28T01:21:37.893Z,63.06
2019-05-28T01:24:07.563Z,63.44
2019-05-28T01:26:37.296Z,63.74
2019-05-28T01:29:07.070Z,63.60
2019-05-28T01:31:36.752Z,64.60
2019-05-28T01:34:06.515Z,65.36
2019-05-28T01:36:36.192Z,65.30
2019-05-28T01:39:08.084Z,65.18
2019-05-28T01:41:37.754Z,65.98
2019-05-28T01:44:07.560Z,66.39
2019-05-28T01:46:37.239Z,66.93
2019-05-28T01:49:06.923Z,67.27
2019-05-28T01:51:36.637Z,67.56
2019-05-28T01:54:06.430Z,67.44
2019-05-28T01:56:36.126Z,67.27
2019-05-28T01:59:05.850Z,67.47
2019-05-28T02:01:35.702Z,67.37
2019-05-28T02:04:06.181Z,67.80
2019-05-28T02:06:35.857Z,67.97
2019-05-28T02:09:08.037Z,68.47
2019-05-28T02:11:37.726Z,68.11
2019-05-28T02:14:07.555Z,67.94
2019-05-28T02:16:37.328Z,67.59
2019-05-28T02:19:07.007Z,67.30
2019-05-28T02:21:36.746Z,67.59
2019-05-28T02:24:06.719Z,67.37
2019-05-28T02:26:36.391Z,66.81
2019-05-28T02:29:06.307Z,66.61
2019-05-28T02:31:36.122Z,66.66
2019-05-28T02:34:05.941Z,65.78
2019-05-28T02:36:35.622Z,66.44
2019-05-28T02:39:08.663Z,66.65
2019-05-28T02:41:38.528Z,66.83
2019-05-28T02:44:08.346Z,67.07
2019-05-28T02:46:38.044Z,67.15
2019-05-28T02:49:07.811Z,66.99
2019-05-28T02:51:38.043Z,66.60
2019-05-28T02:54:07.765Z,66.56
2019-05-28T02:56:40.108Z,66.52
2019-05-28T02:59:13.830Z,66.54
2019-05-28T03:01:45.705Z,66.62
2019-05-28T03:04:18.305Z,66.67
2019-05-28T03:06:50.941Z,66.47
2019-05-28T03:09:23.844Z,66.44
2019-05-28T03:11:53.503Z,66.36
2019-05-28T03:14:23.187Z,65.88
2019-05-28T03:16:57.461Z,66.12
2019-05-28T03:19:30.168Z,65.79
2019-05-28T03:22:03.256Z,66.50
2019-05-28T03:24:35.808Z,66.47
2019-05-28T03:27:05.690Z,65.97
2019-05-28T03:29:35.523Z,66.33
2019-05-28T03:32:08.590Z,66.81
2019-05-28T03:34:36.932Z,67.33
2019-05-28T03:37:07.453Z,67.61
2019-05-28T03:39:41.732Z,67.65
2019-05-28T03:42:11.364Z,67.97
2019-05-28T03:44:41.010Z,67.18
2019-05-28T03:47:10.686Z,66.52
2019-05-28T03:49:40.358Z,66.78
2019-05-28T03:52:10.033Z,66.91
2019-05-28T03:54:39.707Z,66.91
2019-05-28T03:57:09.452Z,66.98
2019-05-28T03:59:39.132Z,66.63
2019-05-28T04:02:22.670Z,65.97
2019-05-28T04:04:40.231Z,66.24
2019-05-28T04:07:09.878Z,66.30
2019-05-28T04:09:39.544Z,66.35
2019-05-28T04:12:09.275Z,66.42
2019-05-28T04:14:38.968Z,66.65
2019-05-28T04:17:08.700Z,66.34
2019-05-28T04:19:38.393Z,66.42
2019-05-28T04:22:08.154Z,65.99
2019-05-28T04:24:37.926Z,65.87
2019-05-28T04:27:07.655Z,66.31
2019-05-28T04:29:37.419Z,66.40
2019-05-28T04:32:07.495Z,66.42
2019-05-28T04:34:37.217Z,66.56
2019-05-28T04:37:06.890Z,66.46
2019-05-28T04:39:36.595Z,66.51
2019-05-28T04:42:06.498Z,66.37
2019-05-28T04:44:36.243Z,66.31
2019-05-28T04:47:08.457Z,66.10
2019-05-28T04:49:37.303Z,66.01
2019-05-28T04:52:07.294Z,66.29
2019-05-28T04:54:36.964Z,66.43
2019-05-28T04:57:06.630Z,66.35
2019-05-28T04:59:36.511Z,66.20
2019-05-28T05:02:06.145Z,66.48
2019-05-28T05:04:35.811Z,66.43
2019-05-28T05:07:05.556Z,66.07
2019-05-28T05:09:35.193Z,65.99
2019-05-28T05:12:05.095Z,65.87
2019-05-28T05:14:34.893Z,66.01
2019-05-28T05:19:43.408Z,65.43
2019-05-28T05:22:13.333Z,65.05
2019-05-28T05:24:43.122Z,64.72
2019-05-28T05:27:13.004Z,64.17
2019-05-28T05:29:42.846Z,63.84
2019-05-28T05:32:12.549Z,63.88
2019-05-28T05:34:42.757Z,63.93
2019-05-28T05:37:12.762Z,63.76
2019-05-28T05:39:43.178Z,63.37
2019-05-28T05:42:13.046Z,62.92
2019-05-28T05:44:43.036Z,62.08
2019-05-28T05:47:13.173Z,61.90
2019-05-28T05:49:43.243Z,62.14
2019-05-28T05:52:12.912Z,62.20
2019-05-28T05:54:42.948Z,62.21
2019-05-28T05:57:12.693Z,62.03
2019-05-28T05:59:42.535Z,61.86
2019-05-28T06:02:12.201Z,61.96
2019-05-28T06:04:42.104Z,61.59
2019-05-28T06:07:11.829Z,61.04
2019-05-28T06:09:41.500Z,60.92
2019-05-28T06:12:11.389Z,61.20
2019-05-28T06:14:41.095Z,61.55
2019-05-28T06:17:10.930Z,61.88
2019-05-28T06:19:40.825Z,62.25
2019-05-28T06:22:10.656Z,62.26
2019-05-28T06:24:40.558Z,62.38
2019-05-28T06:27:10.440Z,62.60
2019-05-28T06:29:40.319Z,63.04
2019-05-28T06:32:10.263Z,63.44
2019-05-28T06:34:40.180Z,63.87
2019-05-28T06:37:10.004Z,64.14
2019-05-28T06:39:39.915Z,64.36
2019-05-28T06:42:09.843Z,64.04
2019-05-28T06:44:39.687Z,64.44
2019-05-28T06:47:09.713Z,65.05
2019-05-28T06:49:39.538Z,65.44
2019-05-28T06:52:09.277Z,65.90
2019-05-28T06:54:39.105Z,66.18
2019-05-28T06:57:22.211Z,66.47
2019-05-28T06:59:40.579Z,66.52
2019-05-28T07:02:10.460Z,66.39
2019-05-28T07:04:40.131Z,66.62
2019-05-28T07:07:09.955Z,66.64
2019-05-28T07:09:39.643Z,66.49
2019-05-28T07:12:09.493Z,66.44
2019-05-28T07:14:39.283Z,66.41
2019-05-28T07:17:09.116Z,66.90
2019-05-28T07:19:38.809Z,66.85
2019-05-28T07:22:08.496Z,66.27
2019-05-28T07:24:38.280Z,66.41
2019-05-28T07:27:08.110Z,66.88
2019-05-28T07:29:37.879Z,67.78
2019-05-28T07:32:07.583Z,67.52
2019-05-28T07:34:37.472Z,67.37
2019-05-28T07:37:07.333Z,67.39
2019-05-28T07:39:37.553Z,66.84
2019-05-28T07:42:07.225Z,67.44
2019-05-28T07:44:37.003Z,67.48
2019-05-28T07:47:10.752Z,66.52
2019-05-28T07:49:38.283Z,66.96
2019-05-28T07:52:08.104Z,67.08
2019-05-28T07:54:39.487Z,67.25
2019-05-28T07:57:09.415Z,66.64
2019-05-28T07:59:42.589Z,66.35
2019-05-28T08:02:12.507Z,65.92
2019-05-28T08:04:47.128Z,66.14
2019-05-28T08:07:14.372Z,66.93
2019-05-28T08:09:44.098Z,66.20
2019-05-28T08:12:14.224Z,66.44
2019-05-28T08:14:44.270Z,67.00
2019-05-28T08:17:14.106Z,66.26
2019-05-28T08:19:44.202Z,66.73
2019-05-28T08:22:13.989Z,66.50
2019-05-28T08:24:43.627Z,66.62
2019-05-28T08:27:13.395Z,66.27
2019-05-28T08:29:45.593Z,65.62
2019-05-28T08:32:14.838Z,64.88
2019-05-28T08:34:44.701Z,63.75
2019-05-28T08:37:14.452Z,64.44
2019-05-28T08:39:44.209Z,65.76
2019-05-28T08:42:13.963Z,65.53
2019-05-28T08:44:43.753Z,66.28
2019-05-28T08:47:13.504Z,66.08
2019-05-28T08:49:43.252Z,65.84
2019-05-28T08:52:13.035Z,67.22
2019-05-28T08:54:42.750Z,68.34
2019-05-28T08:57:12.767Z,69.39
2019-05-28T08:59:42.528Z,70.48
2019-05-28T09:02:27.391Z,72.36
2019-05-28T09:04:43.753Z,73.36
2019-05-28T09:07:13.560Z,74.14
2019-05-28T09:09:43.293Z,74.52
2019-05-28T09:12:13.059Z,74.78
2019-05-28T09:14:55.937Z,73.96
2019-05-28T09:17:14.503Z,73.90
2019-05-28T09:19:44.314Z,73.15
2019-05-28T09:22:25.210Z,73.16
2019-05-28T09:24:45.647Z,72.62
2019-05-28T09:27:15.729Z,74.68
2019-05-28T09:29:45.441Z,76.28
2019-05-28T09:32:15.176Z,77.77
2019-05-28T09:34:44.903Z,78.57
2019-05-28T09:37:14.552Z,79.25
2019-05-28T09:39:44.238Z,79.03
2019-05-28T09:42:14.009Z,79.52
2019-05-28T09:44:43.886Z,80.25
2019-05-28T09:47:13.705Z,80.53
2019-05-28T09:49:43.685Z,80.13
2019-05-28T09:52:13.546Z,79.48
2019-05-28T09:54:43.356Z,79.74
2019-05-28T09:57:13.114Z,79.22
2019-05-28T09:59:42.954Z,80.49
2019-05-28T10:02:12.822Z,79.65
2019-05-28T10:04:49.027Z,78.97
2019-05-28T10:07:14.248Z,77.77
2019-05-28T10:09:45.277Z,78.62
2019-05-28T10:12:15.464Z,78.05
2019-05-28T10:14:45.349Z,78.13
2019-05-28T10:17:15.176Z,78.55
2019-05-28T10:19:44.913Z,78.88
2019-05-28T10:22:14.821Z,79.98
2019-05-28T10:24:45.526Z,80.37
2019-05-28T10:27:15.461Z,80.73
2019-05-28T10:29:45.194Z,81.10
2019-05-28T10:32:15.048Z,79.71
2019-05-28T10:35:02.712Z,77.34
2019-05-28T10:37:16.325Z,77.85
2019-05-28T10:39:46.108Z,78.27
2019-05-28T10:42:15.922Z,79.87
2019-05-28T10:44:45.886Z,80.31
2019-05-28T10:47:15.865Z,81.08
2019-05-28T10:49:45.837Z,80.56
2019-05-28T10:52:15.734Z,81.46
2019-05-28T10:54:45.568Z,82.59
2019-05-28T10:57:15.389Z,82.44
2019-05-28T10:59:45.215Z,82.76
2019-05-28T11:02:15.152Z,82.96
2019-05-28T11:04:44.882Z,82.61
2019-05-28T11:07:14.781Z,81.71
2019-05-28T11:09:44.605Z,81.61
2019-05-28T11:12:14.471Z,79.53
2019-05-28T11:14:44.189Z,79.72
2019-05-28T11:17:14.183Z,78.50
2019-05-28T11:19:43.891Z,79.47
2019-05-28T11:22:13.661Z,77.91
2019-05-28T11:24:43.366Z,77.70
2019-05-28T11:27:13.223Z,77.61
2019-05-28T11:29:43.190Z,76.73
2019-05-28T11:32:13.077Z,75.07
2019-05-28T11:34:42.841Z,73.85
2019-05-28T11:37:13.418Z,72.46
2019-05-28T11:39:43.690Z,70.89
2019-05-28T11:42:14.822Z,69.63
2019-05-28T11:44:44.593Z,69.34
2019-05-28T11:47:14.401Z,69.30
2019-05-28T11:49:44.140Z,67.37
2019-05-28T11:52:13.901Z,66.52
2019-05-28T11:54:43.771Z,66.64
2019-05-28T11:57:13.743Z,66.87
2019-05-28T11:59:43.497Z,66.07
2019-05-28T12:02:13.350Z,66.07
2019-05-28T12:04:43.161Z,65.16
2019-05-28T12:07:25.517Z,65.90
2019-05-28T12:09:44.307Z,64.55
2019-05-28T12:12:14.161Z,65.26
2019-05-28T12:14:43.984Z,64.87
2019-05-28T12:17:13.877Z,63.93
2019-05-28T12:19:43.637Z,63.44
2019-05-28T12:22:15.396Z,63.51
2019-05-28T12:24:45.070Z,64.60
2019-05-28T12:27:15.779Z,64.06
2019-05-28T12:29:52.075Z,64.57
2019-05-28T12:32:17.642Z,66.37
2019-05-28T12:34:50.666Z,64.84
2019-05-28T12:37:20.377Z,65.87
2019-05-28T12:39:50.437Z,66.02
2019-05-28T12:42:20.153Z,67.33
2019-05-28T12:45:08.280Z,67.83
2019-05-28T12:47:21.303Z,68.02
2019-05-28T12:49:51.154Z,67.10
2019-05-28T12:52:20.855Z,67.72
2019-05-28T12:54:50.668Z,69.87
2019-05-28T12:57:20.369Z,68.76
2019-05-28T12:59:50.006Z,68.62
2019-05-28T13:02:19.760Z,68.12
2019-05-28T13:04:49.408Z,66.68
2019-05-28T13:07:19.164Z,65.96
2019-05-28T13:09:49.455Z,67.07
2019-05-28T13:12:19.409Z,67.76
2019-05-28T13:14:49.570Z,67.08
2019-05-28T13:17:19.516Z,68.11
2019-05-28T13:19:49.278Z,68.52
2019-05-28T13:22:19.071Z,68.59
2019-05-28T13:24:48.745Z,68.63
2019-05-28T13:27:18.743Z,67.28
2019-05-28T13:29:48.440Z,66.83
2019-05-28T13:32:18.310Z,66.87
2019-05-28T13:34:48.186Z,66.52
2019-05-28T13:37:19.108Z,67.22
2019-05-28T13:39:49.066Z,68.13
2019-05-28T13:42:19.055Z,67.88
2019-05-28T13:44:48.811Z,68.08
2019-05-28T13:47:33.132Z,71.25
2019-05-28T13:49:50.271Z,72.00
2019-05-28T13:52:20.261Z,71.98
2019-05-28T13:54:49.985Z,71.50
2019-05-28T13:57:19.672Z,71.16
2019-05-28T13:59:49.366Z,68.82
2019-05-28T14:02:19.203Z,68.92
2019-05-28T14:04:48.913Z,69.79
2019-05-28T14:07:18.569Z,70.06
2019-05-28T14:09:48.262Z,71.08
2019-05-28T14:12:18.161Z,70.48
2019-05-28T14:14:47.998Z,69.80
2019-05-28T14:17:17.752Z,70.12
2019-05-28T14:19:47.701Z,70.55
2019-05-28T14:22:32.880Z,69.32
2019-05-28T14:24:48.946Z,68.73
2019-05-28T14:27:18.872Z,68.90
2019-05-28T14:29:48.842Z,69.21
2019-05-28T14:32:18.697Z,67.54
2019-05-28T14:34:52.257Z,65.65
2019-05-28T14:37:20.264Z,65.99
2019-05-28T14:39:50.040Z,63.26
2019-05-28T14:42:19.735Z,62.90
2019-05-28T14:44:50.102Z,63.46
2019-05-28T14:47:20.001Z,66.57
2019-05-28T14:49:49.776Z,67.33
2019-05-28T14:52:19.471Z,65.88
2019-05-28T14:54:49.239Z,64.37
2019-05-28T14:57:19.068Z,64.05
2019-05-28T14:59:48.864Z,64.07
2019-05-28T15:02:18.743Z,63.67
2019-05-28T15:04:48.421Z,59.85
2019-05-28T15:07:18.245Z,58.57
2019-05-28T15:09:49.850Z,59.44
2019-05-28T15:12:19.525Z,62.40
2019-05-28T15:14:49.418Z,63.90
2019-05-28T15:17:19.112Z,64.45
2019-05-28T15:19:48.878Z,65.45
2019-05-28T15:22:18.571Z,65.93
2019-05-28T15:24:49.893Z,66.55
2019-05-28T15:27:20.111Z,66.90
2019-05-28T15:30:11.806Z,68.38
2019-05-28T15:32:41.614Z,68.22
2019-05-28T15:35:13.756Z,67.98
2019-05-28T15:37:43.529Z,67.57
2019-05-28T15:40:13.486Z,68.08
2019-05-28T15:42:43.297Z,69.32
2019-05-28T15:45:14.145Z,69.68
2019-05-28T15:47:45.104Z,69.09
2019-05-28T15:50:15.832Z,70.40
2019-05-28T15:52:45.868Z,70.66
2019-05-28T15:55:15.782Z,71.50
2019-05-28T15:57:45.635Z,71.93
2019-05-28T16:00:23.763Z,71.55
2019-05-28T16:02:53.811Z,71.48
2019-05-28T16:05:23.665Z,71.35
2019-05-28T16:07:53.369Z,71.67
2019-05-28T16:10:23.231Z,72.10
2019-05-28T16:12:52.976Z,72.15
2019-05-28T16:15:22.904Z,71.35
2019-05-28T16:17:52.593Z,70.65
2019-05-28T16:20:22.484Z,70.28
2019-05-28T16:22:52.148Z,70.53
2019-05-28T16:25:22.239Z,69.90
2019-05-28T16:27:52.032Z,70.40
2019-05-28T16:30:23.333Z,70.47
2019-05-28T16:32:52.988Z,70.77
2019-05-28T16:35:22.822Z,70.83
2019-05-28T16:37:52.457Z,70.90
2019-05-28T16:40:22.248Z,70.44
2019-05-28T16:42:51.923Z,69.94
2019-05-28T16:45:22.467Z,69.15
2019-05-28T16:47:52.164Z,68.48
2019-05-28T16:50:22.226Z,68.35
2019-05-28T16:52:51.887Z,67.01
2019-05-28T16:55:22.629Z,67.24
2019-05-28T16:57:52.482Z,67.54
2019-05-28T17:00:22.517Z,66.18
2019-05-28T17:02:52.336Z,67.51
2019-05-28T17:05:21.961Z,68.25
2019-05-28T17:07:51.670Z,68.39
2019-05-28T17:10:32.507Z,68.02
2019-05-28T17:12:52.919Z,67.06
2019-05-28T17:15:22.742Z,66.65
2019-05-28T17:17:52.380Z,66.20
2019-05-28T17:20:22.173Z,65.21
2019-05-28T17:22:55.167Z,63.99
2019-05-28T17:25:23.539Z,64.17
2019-05-28T17:27:53.219Z,64.41
2019-05-28T17:30:24.473Z,64.28
2019-05-28T17:32:54.526Z,64.30
2019-05-28T17:35:24.237Z,64.60
2019-05-28T17:37:53.901Z,65.05
2019-05-28T17:40:23.536Z,64.48
2019-05-28T17:42:53.313Z,65.05
2019-05-28T17:45:23.195Z,65.40
2019-05-28T17:47:52.888Z,65.34
2019-05-28T17:50:23.550Z,65.25
2019-05-28T17:52:53.281Z,64.39
2019-05-28T17:55:22.943Z,64.39
2019-05-28T17:57:52.726Z,64.05
2019-05-28T18:00:22.476Z,64.30
2019-05-28T18:02:52.165Z,64.56
2019-05-28T18:05:21.897Z,64.80
2019-05-28T18:07:51.607Z,64.85
2019-05-28T18:10:21.679Z,65.22
2019-05-28T18:12:51.321Z,65.41
2019-05-28T18:15:21.059Z,65.83
2019-05-28T18:17:50.798Z,66.07
2019-05-28T18:20:20.991Z,65.99
2019-05-28T18:22:50.676Z,66.34
2019-05-28T18:25:20.893Z,66.28
2019-05-28T18:27:50.733Z,66.22
2019-05-28T18:30:21.811Z,66.47
2019-05-28T18:32:51.448Z,66.43
2019-05-28T18:35:21.257Z,66.70
2019-05-28T18:37:50.898Z,67.22
2019-05-28T18:40:20.845Z,67.46
2019-05-28T18:42:50.511Z,67.64
2019-05-28T18:45:20.781Z,67.87
2019-05-28T18:47:50.417Z,68.36
2019-05-28T18:50:20.383Z,68.61
2019-05-28T18:52:50.051Z,69.28
2019-05-28T18:55:19.860Z,69.38
2019-05-28T18:57:51.094Z,69.49
2019-05-28T19:00:20.935Z,69.33
2019-05-28T19:02:50.601Z,69.53
2019-05-28T19:05:20.774Z,69.71
2019-05-28T19:07:50.437Z,68.85
2019-05-28T19:10:20.320Z,68.93
2019-05-28T19:12:50.044Z,69.05
2019-05-28T19:15:20.589Z,69.52
2019-05-28T19:17:50.367Z,69.80
2019-05-28T19:20:20.983Z,69.04
2019-05-28T19:22:50.619Z,68.98
2019-05-28T19:25:20.831Z,68.52
2019-05-28T19:27:50.509Z,68.32
2019-05-28T19:30:33.068Z,68.22
2019-05-28T19:33:05.147Z,67.87
2019-05-28T19:35:35.068Z,67.56
2019-05-28T19:38:05.271Z,67.31
2019-05-28T19:40:42.021Z,67.43
2019-05-28T19:43:11.722Z,67.62
2019-05-28T19:45:41.495Z,67.62
2019-05-28T19:48:11.247Z,67.08
2019-05-28T19:50:40.885Z,66.99
2019-05-28T19:53:10.625Z,67.14
2019-05-28T19:55:40.361Z,66.94
2019-05-28T19:58:10.204Z,67.53
2019-05-28T20:00:40.089Z,67.24
2019-05-28T20:03:09.817Z,67.65
2019-05-28T20:05:39.569Z,67.52
2019-05-28T20:08:09.533Z,67.05
2019-05-28T20:10:39.487Z,67.78
2019-05-28T20:13:09.174Z,67.30
2019-05-28T20:15:38.835Z,67.05
2019-05-28T20:18:23.910Z,67.41
2019-05-28T20:20:40.125Z,67.65
2019-05-28T20:23:09.944Z,67.07
2019-05-28T20:25:39.598Z,67.24
2019-05-28T20:28:09.357Z,66.66
2019-05-28T20:30:39.177Z,66.89
2019-05-28T20:33:09.466Z,65.72
2019-05-28T20:35:39.382Z,65.93
2019-05-28T20:38:12.245Z,65.02
2019-05-28T20:40:40.573Z,65.24
2019-05-28T20:43:10.353Z,65.22
2019-05-28T20:45:40.048Z,65.33
2019-05-28T20:48:10.792Z,65.00
2019-05-28T20:50:40.613Z,64.81
2019-05-28T20:53:10.443Z,64.89
2019-05-28T20:55:40.223Z,65.10
2019-05-28T20:58:09.881Z,65.45
2019-05-28T21:00:39.585Z,64.97
2019-05-28T21:03:09.334Z,65.00
2019-05-28T21:05:39.075Z,65.43
2019-05-28T21:08:08.768Z,65.88
2019-05-28T21:10:38.502Z,65.66
2019-05-28T21:13:08.238Z,64.99
2019-05-28T21:15:37.973Z,65.27
2019-05-28T21:18:07.737Z,65.58
2019-05-28T21:20:37.603Z,64.87
2019-05-28T21:23:07.239Z,64.91
2019-05-28T21:25:36.999Z,65.00
2019-05-28T21:28:06.765Z,65.10
2019-05-28T21:30:36.391Z,64.78
2019-05-28T21:33:06.209Z,64.75
2019-05-28T21:35:35.879Z,64.87
2019-05-28T21:38:05.847Z,65.41
2019-05-28T21:40:35.524Z,64.39
2019-05-28T21:43:09.646Z,64.18
2019-05-28T21:45:36.748Z,64.58
2019-05-28T21:48:06.718Z,64.91
2019-05-28T21:50:36.426Z,64.39
2019-05-28T21:53:06.507Z,64.02
2019-05-28T21:55:36.245Z,63.56
2019-05-28T21:58:06.110Z,64.07
2019-05-28T22:00:50.023Z,64.04
2019-05-28T22:03:19.757Z,64.05
2019-05-28T22:05:49.519Z,64.42
2019-05-28T22:08:19.233Z,64.38
2019-05-28T22:10:48.889Z,64.78
2019-05-28T22:13:22.423Z,65.03
2019-05-28T22:15:50.015Z,65.30
2019-05-28T22:18:19.932Z,65.28
2019-05-28T22:20:49.588Z,65.32
2019-05-28T22:23:19.267Z,65.57
2019-05-28T22:25:48.991Z,66.07
2019-05-28T22:28:18.688Z,66.29
2019-05-28T22:30:48.570Z,66.67
2019-05-28T22:33:18.398Z,66.94
2019-05-28T22:35:48.133Z,67.17
2019-05-28T22:38:17.811Z,67.34
2019-05-28T22:40:47.551Z,67.11
2019-05-28T22:43:30.778Z,67.25
2019-05-28T22:45:48.787Z,67.32
2019-05-28T22:48:18.585Z,67.42
2019-05-28T22:50:48.239Z,67.26
2019-05-28T22:53:17.903Z,67.34
2019-05-28T22:55:47.587Z,67.50
2019-05-28T22:58:17.239Z,67.72
2019-05-28T23:00:46.917Z,67.56
2019-05-28T23:03:16.678Z,67.52
2019-05-28T23:05:46.321Z,67.80
2019-05-28T23:08:15.968Z,67.72
2019-05-28T23:10:46.501Z,68.02
2019-05-28T23:13:16.157Z,68.16
2019-05-28T23:15:45.926Z,68.26
2019-05-28T23:18:15.637Z,67.69
2019-05-28T23:20:45.301Z,68.23
2019-05-28T23:23:15.035Z,67.81
2019-05-28T23:25:44.682Z,67.75
2019-05-28T23:28:14.365Z,67.57
2019-05-28T23:30:44.001Z,67.50
2019-05-28T23:33:14.270Z,67.53
2019-05-28T23:35:44.504Z,67.51
2019-05-28T23:38:14.258Z,67.97
2019-05-28T23:40:44.054Z,67.82
2019-05-28T23:43:13.876Z,68.20
2019-05-28T23:45:43.811Z,67.89
2019-05-28T23:48:17.851Z,67.96
2019-05-28T23:50:45.033Z,68.64
2019-05-28T23:53:14.697Z,68.51
2019-05-28T23:55:44.585Z,69.02
2019-05-28T23:58:14.294Z,69.10
